Shipshewana, IN (46565)

11:40 PM EDT on July 24, 2016 (GMT -0400)
Kirsch Municipal | | Change Station

Elev 925 ft 41.82 °N, 85.44 °W | Updated 5 minutes ago

Clear
Clear
80 °F
Feels Like 80 °F
N
4
Wind Variable Wind from South

Today
High -- | Low -- °F
--% Chance of Precip.
Yesterday
High -- | Low -- °F
Precip. -- in
Pressure 29.90 in
Visibility 10.0 miles
Clouds Clear
Dew Point 76 °F
Humidity 89%
Rainfall 1.16 in
Snow Depth Not available.
6:29 AM 9:07 PM
Waning Gibbous, 70% visible
METAR KIRS 250335Z AUTO 19003KT 10SM CLR 27/25 A2990 RMK AO2 T02650245
Pressure 29.90 in
Visibility 10.0 miles
Clouds Clear
Dew Point 76 °F
Humidity 89%
Rainfall 1.16 in
Snow Depth Not available.
6:29 AM 9:07 PM
Waning Gibbous, 70% visible
METAR KIRS 250335Z AUTO 19003KT 10SM CLR 27/25 A2990 RMK AO2 T02650245

10-Day Weather Forecast

Almanac

Astronomy

Jul. 24, 2016 Rise Set
Actual Time
Civil Twilight
Nautical Twilight
Astronomical Twilight
Moon
Length of Visible Light
Length of Day
Tomorrow will be .
, % of the Moon is Illuminated

Today's Extremes

State Highs State Lows

Community

WunderPhotos

Upload Photos

1,927,256 photos uploaded!

WunderBlog® & News

Nearby

Air Quality

  Air Quality AQ Index Pollutant
Not available.

Snow Depth

Station Depth Elevation

Earthquake Activity

City Distance Mag. Time & Date
Minimum magnitude displayed is 2.5.

Coastal Water Temperatures

Place Temperature

Stations

Nearby Weather Stations

Station Location Temp. Windchill Dew Point Humidity Wind Precip. Elev Updated Type
                   

Watches & Warnings

There are currently no watches in effect.